sensor_id;sensor_type;location;lat;lon;timestamp;temperature;humidity
20479;DHT22;10398;52.490;13.434;2023-04-24T00:00:24;13.50;99.90
20479;DHT22;10398;52.490;13.434;2023-04-24T00:02:49;13.50;99.90
20479;DHT22;10398;52.490;13.434;2023-04-24T00:05:16;13.50;99.90
20479;DHT22;10398;52.490;13.434;2023-04-24T00:07:43;13.50;99.90
20479;DHT22;10398;52.490;13.434;2023-04-24T00:10:09;13.50;99.90
20479;DHT22;10398;52.490;13.434;2023-04-24T00:12:35;13.50;99.90
20479;DHT22;10398;52.490;13.434;2023-04-24T00:15:01;13.60;99.90
20479;DHT22;10398;52.490;13.434;2023-04-24T00:17:27;13.60;99.90
20479;DHT22;10398;52.490;13.434;2023-04-24T00:19:53;13.40;99.90
20479;DHT22;10398;52.490;13.434;2023-04-24T00:22:24;13.40;99.90
20479;DHT22;10398;52.490;13.434;2023-04-24T00:24:50;13.40;99.90
20479;DHT22;10398;52.490;13.434;2023-04-24T00:27:16;13.40;99.90
20479;DHT22;10398;52.490;13.434;2023-04-24T00:29:41;13.40;99.90
20479;DHT22;10398;52.490;13.434;2023-04-24T00:32:07;13.20;99.90
20479;DHT22;10398;52.490;13.434;2023-04-24T00:34:32;13.20;99.90
20479;DHT22;10398;52.490;13.434;2023-04-24T00:36:58;13.20;99.90
20479;DHT22;10398;52.490;13.434;2023-04-24T00:39:24;13.20;99.90
20479;DHT22;10398;52.490;13.434;2023-04-24T00:41:50;13.30;99.90
20479;DHT22;10398;52.490;13.434;2023-04-24T00:44:16;13.20;99.90
20479;DHT22;10398;52.490;13.434;2023-04-24T00:46:42;13.10;99.90
20479;DHT22;10398;52.490;13.434;2023-04-24T00:49:08;13.20;99.90
20479;DHT22;10398;52.490;13.434;2023-04-24T00:51:33;13.20;99.90
20479;DHT22;10398;52.490;13.434;2023-04-24T00:54:00;13.20;99.90
20479;DHT22;10398;52.490;13.434;2023-04-24T00:56:26;13.30;99.90
20479;DHT22;10398;52.490;13.434;2023-04-24T00:58:52;13.30;99.90
20479;DHT22;10398;52.490;13.434;2023-04-24T01:01:22;13.30;99.90
20479;DHT22;10398;52.490;13.434;2023-04-24T01:03:51;13.30;99.90
20479;DHT22;10398;52.490;13.434;2023-04-24T01:06:18;13.20;99.90
20479;DHT22;10398;52.490;13.434;2023-04-24T01:08:46;13.20;99.90
20479;DHT22;10398;52.490;13.434;2023-04-24T01:11:12;13.20;99.90
20479;DHT22;10398;52.490;13.434;2023-04-24T01:13:38;13.10;99.90
20479;DHT22;10398;52.490;13.434;2023-04-24T01:16:05;13.00;99.90
20479;DHT22;10398;52.490;13.434;2023-04-24T01:18:31;12.90;99.90
20479;DHT22;10398;52.490;13.434;2023-04-24T01:20:58;12.90;99.90
20479;DHT22;10398;52.490;13.434;2023-04-24T01:23:25;12.90;99.90
20479;DHT22;10398;52.490;13.434;2023-04-24T01:25:51;13.00;99.90
20479;DHT22;10398;52.490;13.434;2023-04-24T01:28:17;13.00;99.90
20479;DHT22;10398;52.490;13.434;2023-04-24T01:30:43;12.90;99.90
20479;DHT22;10398;52.490;13.434;2023-04-24T01:33:09;13.00;99.90
20479;DHT22;10398;52.490;13.434;2023-04-24T01:35:36;13.00;99.90
20479;DHT22;10398;52.490;13.434;2023-04-24T01:38:03;13.00;99.90
20479;DHT22;10398;52.490;13.434;2023-04-24T01:40:29;13.10;99.90
20479;DHT22;10398;52.490;13.434;2023-04-24T01:42:55;13.00;99.90
20479;DHT22;10398;52.490;13.434;2023-04-24T01:45:20;13.10;99.90
20479;DHT22;10398;52.490;13.434;2023-04-24T01:47:46;13.30;99.90
20479;DHT22;10398;52.490;13.434;2023-04-24T01:50:13;13.30;99.90
20479;DHT22;10398;52.490;13.434;2023-04-24T01:52:38;13.20;99.90
20479;DHT22;10398;52.490;13.434;2023-04-24T01:55:04;13.20;99.90
20479;DHT22;10398;52.490;13.434;2023-04-24T01:57:31;13.20;99.90
20479;DHT22;10398;52.490;13.434;2023-04-24T01:59:57;13.20;99.90
20479;DHT22;10398;52.490;13.434;2023-04-24T02:02:23;13.20;99.90
20479;DHT22;10398;52.490;13.434;2023-04-24T02:04:53;13.20;99.90
20479;DHT22;10398;52.490;13.434;2023-04-24T02:07:19;13.20;99.90
20479;DHT22;10398;52.490;13.434;2023-04-24T02:09:45;13.20;99.90
20479;DHT22;10398;52.490;13.434;2023-04-24T02:12:11;13.30;99.90
20479;DHT22;10398;52.490;13.434;2023-04-24T02:14:36;13.30;99.90
20479;DHT22;10398;52.490;13.434;2023-04-24T02:17:02;13.50;99.90
20479;DHT22;10398;52.490;13.434;2023-04-24T02:19:28;13.50;99.90
20479;DHT22;10398;52.490;13.434;2023-04-24T02:21:54;13.50;99.90
20479;DHT22;10398;52.490;13.434;2023-04-24T02:24:19;13.50;99.90
20479;DHT22;10398;52.490;13.434;2023-04-24T02:26:45;13.50;99.90
20479;DHT22;10398;52.490;13.434;2023-04-24T02:29:11;13.40;99.90
20479;DHT22;10398;52.490;13.434;2023-04-24T02:31:36;13.40;99.90
20479;DHT22;10398;52.490;13.434;2023-04-24T02:34:02;13.40;99.90
20479;DHT22;10398;52.490;13.434;2023-04-24T02:36:27;13.40;99.90
20479;DHT22;10398;52.490;13.434;2023-04-24T02:38:53;13.30;99.90
20479;DHT22;10398;52.490;13.434;2023-04-24T02:41:19;13.30;99.90
20479;DHT22;10398;52.490;13.434;2023-04-24T02:43:45;13.30;99.90
20479;DHT22;10398;52.490;13.434;2023-04-24T02:46:11;13.40;99.90
20479;DHT22;10398;52.490;13.434;2023-04-24T02:48:36;13.40;99.90
20479;DHT22;10398;52.490;13.434;2023-04-24T02:51:02;13.50;99.90
20479;DHT22;10398;52.490;13.434;2023-04-24T02:53:28;13.40;99.90
20479;DHT22;10398;52.490;13.434;2023-04-24T02:55:56;13.40;99.90
20479;DHT22;10398;52.490;13.434;2023-04-24T02:58:21;13.40;99.90
20479;DHT22;10398;52.490;13.434;2023-04-24T03:00:47;13.30;99.90
20479;DHT22;10398;52.490;13.434;2023-04-24T03:03:13;13.40;99.90
20479;DHT22;10398;52.490;13.434;2023-04-24T03:05:39;13.30;99.90
20479;DHT22;10398;52.490;13.434;2023-04-24T03:08:04;13.40;99.90
20479;DHT22;10398;52.490;13.434;2023-04-24T03:10:31;13.40;99.90
20479;DHT22;10398;52.490;13.434;2023-04-24T03:12:57;13.30;99.90
20479;DHT22;10398;52.490;13.434;2023-04-24T03:15:23;13.40;99.90
20479;DHT22;10398;52.490;13.434;2023-04-24T03:17:48;13.40;99.90
20479;DHT22;10398;52.490;13.434;2023-04-24T03:20:14;13.40;99.90
20479;DHT22;10398;52.490;13.434;2023-04-24T03:22:40;13.50;99.90
20479;DHT22;10398;52.490;13.434;2023-04-24T03:25:06;13.40;99.90
20479;DHT22;10398;52.490;13.434;2023-04-24T03:27:34;13.30;99.90
20479;DHT22;10398;52.490;13.434;2023-04-24T03:30:00;13.20;99.90
20479;DHT22;10398;52.490;13.434;2023-04-24T03:32:26;13.20;99.90
20479;DHT22;10398;52.490;13.434;2023-04-24T03:34:51;13.10;99.90
20479;DHT22;10398;52.490;13.434;2023-04-24T03:37:17;13.10;99.90
20479;DHT22;10398;52.490;13.434;2023-04-24T03:39:43;13.10;99.90
20479;DHT22;10398;52.490;13.434;2023-04-24T03:42:09;13.20;99.90
20479;DHT22;10398;52.490;13.434;2023-04-24T03:44:35;13.20;99.90
20479;DHT22;10398;52.490;13.434;2023-04-24T03:47:01;13.10;99.90
20479;DHT22;10398;52.490;13.434;2023-04-24T03:49:26;13.10;99.90
20479;DHT22;10398;52.490;13.434;2023-04-24T03:51:52;13.20;99.90
20479;DHT22;10398;52.490;13.434;2023-04-24T03:54:18;13.30;99.90
20479;DHT22;10398;52.490;13.434;2023-04-24T03:56:44;13.30;99.90
20479;DHT22;10398;52.490;13.434;2023-04-24T03:59:10;13.40;99.90
20479;DHT22;10398;52.490;13.434;2023-04-24T04:01:36;13.40;99.90
20479;DHT22;10398;52.490;13.434;2023-04-24T04:04:03;13.40;99.90
20479;DHT22;10398;52.490;13.434;2023-04-24T04:06:29;13.60;99.90
20479;DHT22;10398;52.490;13.434;2023-04-24T04:08:56;13.50;99.90
20479;DHT22;10398;52.490;13.434;2023-04-24T04:11:22;13.60;99.90
20479;DHT22;10398;52.490;13.434;2023-04-24T04:13:48;13.60;99.90
20479;DHT22;10398;52.490;13.434;2023-04-24T04:16:14;13.60;99.90
20479;DHT22;10398;52.490;13.434;2023-04-24T04:18:42;13.60;99.90
20479;DHT22;10398;52.490;13.434;2023-04-24T04:21:08;13.40;99.90
20479;DHT22;10398;52.490;13.434;2023-04-24T04:23:33;13.40;99.90
20479;DHT22;10398;52.490;13.434;2023-04-24T04:25:59;13.40;99.90
20479;DHT22;10398;52.490;13.434;2023-04-24T04:28:25;13.30;99.90
20479;DHT22;10398;52.490;13.434;2023-04-24T04:30:51;13.30;99.90
20479;DHT22;10398;52.490;13.434;2023-04-24T04:33:21;13.20;99.90
20479;DHT22;10398;52.490;13.434;2023-04-24T04:35:47;13.20;99.90
20479;DHT22;10398;52.490;13.434;2023-04-24T04:38:17;13.20;99.90
20479;DHT22;10398;52.490;13.434;2023-04-24T04:40:44;13.20;99.90
20479;DHT22;10398;52.490;13.434;2023-04-24T04:43:10;13.20;99.90
20479;DHT22;10398;52.490;13.434;2023-04-24T04:45:41;13.10;99.90
20479;DHT22;10398;52.490;13.434;2023-04-24T04:48:09;13.20;99.90
20479;DHT22;10398;52.490;13.434;2023-04-24T04:50:38;13.10;99.90
20479;DHT22;10398;52.490;13.434;2023-04-24T04:53:04;13.10;99.90
20479;DHT22;10398;52.490;13.434;2023-04-24T04:55:29;13.10;99.90
20479;DHT22;10398;52.490;13.434;2023-04-24T04:57:55;13.20;99.90
20479;DHT22;10398;52.490;13.434;2023-04-24T05:00:21;13.20;99.90
20479;DHT22;10398;52.490;13.434;2023-04-24T05:02:48;13.20;99.90
20479;DHT22;10398;52.490;13.434;2023-04-24T05:05:14;13.30;99.90
20479;DHT22;10398;52.490;13.434;2023-04-24T05:07:39;13.30;99.90
20479;DHT22;10398;52.490;13.434;2023-04-24T05:10:06;13.40;99.90
20479;DHT22;10398;52.490;13.434;2023-04-24T05:12:31;13.50;99.90
20479;DHT22;10398;52.490;13.434;2023-04-24T05:14:57;13.50;99.90
20479;DHT22;10398;52.490;13.434;2023-04-24T05:17:23;13.70;99.90
20479;DHT22;10398;52.490;13.434;2023-04-24T05:19:48;13.70;99.90
20479;DHT22;10398;52.490;13.434;2023-04-24T05:22:14;13.70;99.90
20479;DHT22;10398;52.490;13.434;2023-04-24T05:24:40;13.80;99.90
20479;DHT22;10398;52.490;13.434;2023-04-24T05:27:06;13.70;99.90
20479;DHT22;10398;52.490;13.434;2023-04-24T05:29:31;13.80;99.90
20479;DHT22;10398;52.490;13.434;2023-04-24T05:31:58;13.90;99.90
20479;DHT22;10398;52.490;13.434;2023-04-24T05:34:24;13.90;99.90
20479;DHT22;10398;52.490;13.434;2023-04-24T05:36:50;14.00;99.90
20479;DHT22;10398;52.490;13.434;2023-04-24T05:39:16;14.00;99.90
20479;DHT22;10398;52.490;13.434;2023-04-24T05:41:42;14.00;99.90
20479;DHT22;10398;52.490;13.434;2023-04-24T05:44:08;14.10;99.90
20479;DHT22;10398;52.490;13.434;2023-04-24T05:46:33;14.20;99.90
20479;DHT22;10398;52.490;13.434;2023-04-24T05:48:59;14.20;99.90
20479;DHT22;10398;52.490;13.434;2023-04-24T05:51:25;14.30;99.90
20479;DHT22;10398;52.490;13.434;2023-04-24T05:53:51;14.30;99.90
20479;DHT22;10398;52.490;13.434;2023-04-24T05:56:17;14.30;99.90
20479;DHT22;10398;52.490;13.434;2023-04-24T05:58:43;14.30;99.90
20479;DHT22;10398;52.490;13.434;2023-04-24T06:01:09;14.30;99.90
20479;DHT22;10398;52.490;13.434;2023-04-24T06:03:35;14.30;99.90
20479;DHT22;10398;52.490;13.434;2023-04-24T06:06:00;14.30;99.90
20479;DHT22;10398;52.490;13.434;2023-04-24T06:08:26;14.30;99.90
20479;DHT22;10398;52.490;13.434;2023-04-24T06:10:52;14.30;99.90
20479;DHT22;10398;52.490;13.434;2023-04-24T06:13:17;14.30;99.90
20479;DHT22;10398;52.490;13.434;2023-04-24T06:15:43;14.30;99.90
20479;DHT22;10398;52.490;13.434;2023-04-24T06:18:09;14.40;99.90
20479;DHT22;10398;52.490;13.434;2023-04-24T06:20:38;14.30;99.90
20479;DHT22;10398;52.490;13.434;2023-04-24T06:23:04;14.40;99.90
20479;DHT22;10398;52.490;13.434;2023-04-24T06:25:30;14.30;99.90
20479;DHT22;10398;52.490;13.434;2023-04-24T06:27:56;14.40;99.90
20479;DHT22;10398;52.490;13.434;2023-04-24T06:30:22;14.30;99.90
20479;DHT22;10398;52.490;13.434;2023-04-24T06:32:48;14.30;99.90
20479;DHT22;10398;52.490;13.434;2023-04-24T06:35:13;14.30;99.90
20479;DHT22;10398;52.490;13.434;2023-04-24T06:37:42;14.40;99.90
20479;DHT22;10398;52.490;13.434;2023-04-24T06:40:08;14.50;99.90
20479;DHT22;10398;52.490;13.434;2023-04-24T06:42:35;14.60;99.90
20479;DHT22;10398;52.490;13.434;2023-04-24T06:45:01;14.70;99.90
20479;DHT22;10398;52.490;13.434;2023-04-24T06:47:26;14.70;99.90
20479;DHT22;10398;52.490;13.434;2023-04-24T06:49:52;14.70;99.90
20479;DHT22;10398;52.490;13.434;2023-04-24T06:52:19;14.80;99.90
20479;DHT22;10398;52.490;13.434;2023-04-24T06:54:44;14.80;99.90
20479;DHT22;10398;52.490;13.434;2023-04-24T06:57:10;15.00;99.90
20479;DHT22;10398;52.490;13.434;2023-04-24T06:59:36;15.00;99.90
20479;DHT22;10398;52.490;13.434;2023-04-24T07:02:02;15.10;99.90
20479;DHT22;10398;52.490;13.434;2023-04-24T07:04:28;15.20;99.90
20479;DHT22;10398;52.490;13.434;2023-04-24T07:06:54;15.30;99.90
20479;DHT22;10398;52.490;13.434;2023-04-24T07:09:25;15.40;99.90
20479;DHT22;10398;52.490;13.434;2023-04-24T07:11:51;15.40;99.90
20479;DHT22;10398;52.490;13.434;2023-04-24T07:14:17;15.50;99.90
20479;DHT22;10398;52.490;13.434;2023-04-24T07:16:43;15.60;99.90
20479;DHT22;10398;52.490;13.434;2023-04-24T07:19:09;15.70;99.90
20479;DHT22;10398;52.490;13.434;2023-04-24T07:21:35;15.70;99.90
20479;DHT22;10398;52.490;13.434;2023-04-24T07:24:00;15.60;99.90
20479;DHT22;10398;52.490;13.434;2023-04-24T07:26:28;15.70;99.90
20479;DHT22;10398;52.490;13.434;2023-04-24T07:28:54;15.80;99.90
20479;DHT22;10398;52.490;13.434;2023-04-24T07:31:20;15.80;99.90
20479;DHT22;10398;52.490;13.434;2023-04-24T07:33:46;15.90;99.90
20479;DHT22;10398;52.490;13.434;2023-04-24T07:36:12;16.00;99.90
20479;DHT22;10398;52.490;13.434;2023-04-24T07:38:50;16.00;99.90
20479;DHT22;10398;52.490;13.434;2023-04-24T07:41:16;16.10;99.90
20479;DHT22;10398;52.490;13.434;2023-04-24T07:43:41;16.10;99.90
20479;DHT22;10398;52.490;13.434;2023-04-24T07:46:08;16.10;99.90
20479;DHT22;10398;52.490;13.434;2023-04-24T07:48:34;16.00;99.90
20479;DHT22;10398;52.490;13.434;2023-04-24T07:51:00;16.10;99.90
20479;DHT22;10398;52.490;13.434;2023-04-24T07:53:26;16.10;99.90
20479;DHT22;10398;52.490;13.434;2023-04-24T07:55:51;16.30;99.90
20479;DHT22;10398;52.490;13.434;2023-04-24T07:58:17;16.40;99.90
20479;DHT22;10398;52.490;13.434;2023-04-24T08:00:43;16.40;99.90
20479;DHT22;10398;52.490;13.434;2023-04-24T08:03:08;16.30;99.90
20479;DHT22;10398;52.490;13.434;2023-04-24T08:05:34;16.40;99.90
20479;DHT22;10398;52.490;13.434;2023-04-24T08:08:00;16.40;99.90
20479;DHT22;10398;52.490;13.434;2023-04-24T08:10:25;16.50;99.90
20479;DHT22;10398;52.490;13.434;2023-04-24T08:12:51;16.50;99.90
20479;DHT22;10398;52.490;13.434;2023-04-24T08:15:17;16.60;99.90
20479;DHT22;10398;52.490;13.434;2023-04-24T08:17:43;16.60;99.90
20479;DHT22;10398;52.490;13.434;2023-04-24T08:20:10;16.70;99.90
20479;DHT22;10398;52.490;13.434;2023-04-24T08:22:41;16.80;99.90
20479;DHT22;10398;52.490;13.434;2023-04-24T08:25:08;16.80;99.90
20479;DHT22;10398;52.490;13.434;2023-04-24T08:27:34;16.70;99.90
20479;DHT22;10398;52.490;13.434;2023-04-24T08:30:00;16.60;99.90
20479;DHT22;10398;52.490;13.434;2023-04-24T08:32:26;16.70;99.90
20479;DHT22;10398;52.490;13.434;2023-04-24T08:34:55;16.80;99.90
20479;DHT22;10398;52.490;13.434;2023-04-24T08:37:22;16.90;99.90
20479;DHT22;10398;52.490;13.434;2023-04-24T08:39:49;16.80;99.90
20479;DHT22;10398;52.490;13.434;2023-04-24T08:42:16;16.90;99.90
20479;DHT22;10398;52.490;13.434;2023-04-24T08:44:42;17.00;99.90
20479;DHT22;10398;52.490;13.434;2023-04-24T08:47:08;17.10;99.90
20479;DHT22;10398;52.490;13.434;2023-04-24T08:49:36;17.10;99.90
20479;DHT22;10398;52.490;13.434;2023-04-24T08:52:02;17.20;99.90
20479;DHT22;10398;52.490;13.434;2023-04-24T08:54:29;17.40;99.90
20479;DHT22;10398;52.490;13.434;2023-04-24T08:57:01;17.50;99.90
20479;DHT22;10398;52.490;13.434;2023-04-24T08:59:31;17.50;99.90
20479;DHT22;10398;52.490;13.434;2023-04-24T09:01:57;17.50;99.90
20479;DHT22;10398;52.490;13.434;2023-04-24T09:04:24;17.60;99.90
20479;DHT22;10398;52.490;13.434;2023-04-24T09:06:51;17.50;99.90
20479;DHT22;10398;52.490;13.434;2023-04-24T09:09:17;17.50;99.90
20479;DHT22;10398;52.490;13.434;2023-04-24T09:11:46;17.50;99.90
20479;DHT22;10398;52.490;13.434;2023-04-24T09:14:12;17.40;99.90
20479;DHT22;10398;52.490;13.434;2023-04-24T09:16:38;17.40;99.90
20479;DHT22;10398;52.490;13.434;2023-04-24T09:19:04;17.40;99.90
20479;DHT22;10398;52.490;13.434;2023-04-24T09:21:34;17.20;99.90
20479;DHT22;10398;52.490;13.434;2023-04-24T09:24:02;17.20;99.90
20479;DHT22;10398;52.490;13.434;2023-04-24T09:26:33;17.20;99.90
20479;DHT22;10398;52.490;13.434;2023-04-24T09:29:00;17.20;99.90
20479;DHT22;10398;52.490;13.434;2023-04-24T09:31:28;17.20;99.90
20479;DHT22;10398;52.490;13.434;2023-04-24T09:33:58;17.10;99.90
20479;DHT22;10398;52.490;13.434;2023-04-24T09:36:29;17.10;99.90
20479;DHT22;10398;52.490;13.434;2023-04-24T09:38:59;17.10;99.90
20479;DHT22;10398;52.490;13.434;2023-04-24T09:41:26;17.10;99.90
20479;DHT22;10398;52.490;13.434;2023-04-24T09:43:53;17.00;99.90
20479;DHT22;10398;52.490;13.434;2023-04-24T09:46:20;17.00;99.90
20479;DHT22;10398;52.490;13.434;2023-04-24T09:48:47;17.00;99.90
20479;DHT22;10398;52.490;13.434;2023-04-24T09:51:12;17.10;99.90
20479;DHT22;10398;52.490;13.434;2023-04-24T09:53:38;17.10;99.90
20479;DHT22;10398;52.490;13.434;2023-04-24T09:56:10;17.10;99.90
20479;DHT22;10398;52.490;13.434;2023-04-24T09:58:38;17.10;99.90
20479;DHT22;10398;52.490;13.434;2023-04-24T10:01:04;17.20;99.90
20479;DHT22;10398;52.490;13.434;2023-04-24T10:03:31;17.20;99.90
20479;DHT22;10398;52.490;13.434;2023-04-24T10:06:00;17.20;99.90
20479;DHT22;10398;52.490;13.434;2023-04-24T10:08:26;17.20;99.90
20479;DHT22;10398;52.490;13.434;2023-04-24T10:10:58;17.20;99.90
20479;DHT22;10398;52.490;13.434;2023-04-24T10:13:25;17.20;99.90
20479;DHT22;10398;52.490;13.434;2023-04-24T10:15:51;17.40;99.90
20479;DHT22;10398;52.490;13.434;2023-04-24T10:18:17;17.40;99.90
20479;DHT22;10398;52.490;13.434;2023-04-24T10:20:43;17.50;99.90
20479;DHT22;10398;52.490;13.434;2023-04-24T10:23:09;17.60;99.90
20479;DHT22;10398;52.490;13.434;2023-04-24T10:25:36;17.60;99.90
20479;DHT22;10398;52.490;13.434;2023-04-24T10:28:03;17.80;99.90
20479;DHT22;10398;52.490;13.434;2023-04-24T10:30:31;17.90;99.90
20479;DHT22;10398;52.490;13.434;2023-04-24T10:33:01;17.90;99.90
20479;DHT22;10398;52.490;13.434;2023-04-24T10:35:26;17.90;99.90
20479;DHT22;10398;52.490;13.434;2023-04-24T10:38:13;17.90;99.90
20479;DHT22;10398;52.490;13.434;2023-04-24T10:40:39;17.90;99.90
20479;DHT22;10398;52.490;13.434;2023-04-24T10:43:07;17.90;99.90
20479;DHT22;10398;52.490;13.434;2023-04-24T10:45:35;17.80;99.90
20479;DHT22;10398;52.490;13.434;2023-04-24T10:48:10;17.70;99.90
20479;DHT22;10398;52.490;13.434;2023-04-24T10:50:46;17.50;99.90
20479;DHT22;10398;52.490;13.434;2023-04-24T10:53:18;17.50;99.90
20479;DHT22;10398;52.490;13.434;2023-04-24T10:55:51;17.40;99.90
20479;DHT22;10398;52.490;13.434;2023-04-24T10:58:22;17.30;99.90
20479;DHT22;10398;52.490;13.434;2023-04-24T11:00:56;17.20;99.90
20479;DHT22;10398;52.490;13.434;2023-04-24T11:03:30;17.20;99.90
20479;DHT22;10398;52.490;13.434;2023-04-24T11:06:02;17.20;99.90
20479;DHT22;10398;52.490;13.434;2023-04-24T11:08:43;17.20;99.90
20479;DHT22;10398;52.490;13.434;2023-04-24T11:11:13;17.30;99.90
20479;DHT22;10398;52.490;13.434;2023-04-24T11:21:54;18.50;99.90
20479;DHT22;10398;52.490;13.434;2023-04-24T11:27:06;18.30;99.90
20479;DHT22;10398;52.490;13.434;2023-04-24T11:29:47;18.20;99.90
20479;DHT22;10398;52.490;13.434;2023-04-24T11:32:16;18.00;99.90
20479;DHT22;10398;52.490;13.434;2023-04-24T11:34:48;17.90;99.90
20479;DHT22;10398;52.490;13.434;2023-04-24T11:37:14;17.50;99.90
20479;DHT22;10398;52.490;13.434;2023-04-24T11:39:40;17.10;99.90
20479;DHT22;10398;52.490;13.434;2023-04-24T11:42:07;16.00;99.90
20479;DHT22;10398;52.490;13.434;2023-04-24T11:44:36;15.50;99.90
20479;DHT22;10398;52.490;13.434;2023-04-24T11:47:05;15.40;99.90
20479;DHT22;10398;52.490;13.434;2023-04-24T11:49:32;15.70;99.90
20479;DHT22;10398;52.490;13.434;2023-04-24T11:51:59;15.90;99.90
20479;DHT22;10398;52.490;13.434;2023-04-24T11:54:25;16.00;99.90
20479;DHT22;10398;52.490;13.434;2023-04-24T11:56:51;16.40;99.90
20479;DHT22;10398;52.490;13.434;2023-04-24T11:59:16;16.60;99.90
20479;DHT22;10398;52.490;13.434;2023-04-24T12:01:46;16.90;99.90
20479;DHT22;10398;52.490;13.434;2023-04-24T12:04:12;17.20;99.90
20479;DHT22;10398;52.490;13.434;2023-04-24T12:06:38;17.30;99.90
20479;DHT22;10398;52.490;13.434;2023-04-24T12:09:04;17.40;99.90
20479;DHT22;10398;52.490;13.434;2023-04-24T12:11:30;17.70;99.90
20479;DHT22;10398;52.490;13.434;2023-04-24T12:13:55;17.90;99.90
20479;DHT22;10398;52.490;13.434;2023-04-24T12:16:21;18.10;99.90
20479;DHT22;10398;52.490;13.434;2023-04-24T12:18:47;18.30;99.90
20479;DHT22;10398;52.490;13.434;2023-04-24T12:21:20;18.50;99.90
20479;DHT22;10398;52.490;13.434;2023-04-24T12:23:47;18.80;99.90
20479;DHT22;10398;52.490;13.434;2023-04-24T12:26:19;19.10;99.90
20479;DHT22;10398;52.490;13.434;2023-04-24T12:28:47;19.30;99.90
20479;DHT22;10398;52.490;13.434;2023-04-24T12:31:13;19.20;99.90
20479;DHT22;10398;52.490;13.434;2023-04-24T12:33:39;19.00;99.90
20479;DHT22;10398;52.490;13.434;2023-04-24T12:36:05;18.90;99.90
20479;DHT22;10398;52.490;13.434;2023-04-24T12:38:31;18.90;99.90
20479;DHT22;10398;52.490;13.434;2023-04-24T12:41:10;18.80;99.90
20479;DHT22;10398;52.490;13.434;2023-04-24T12:43:36;18.80;99.90
20479;DHT22;10398;52.490;13.434;2023-04-24T12:46:03;18.80;99.90
20479;DHT22;10398;52.490;13.434;2023-04-24T12:48:29;18.80;99.90
20479;DHT22;10398;52.490;13.434;2023-04-24T12:50:56;18.80;99.90
20479;DHT22;10398;52.490;13.434;2023-04-24T12:53:22;18.70;99.90
20479;DHT22;10398;52.490;13.434;2023-04-24T12:55:48;18.50;99.90
20479;DHT22;10398;52.490;13.434;2023-04-24T12:58:22;18.40;99.90
20479;DHT22;10398;52.490;13.434;2023-04-24T13:00:47;18.30;99.90
20479;DHT22;10398;52.490;13.434;2023-04-24T13:03:13;18.40;99.90
20479;DHT22;10398;52.490;13.434;2023-04-24T13:05:40;18.40;99.90
20479;DHT22;10398;52.490;13.434;2023-04-24T13:08:05;18.60;99.90
20479;DHT22;10398;52.490;13.434;2023-04-24T13:10:31;18.90;99.90
20479;DHT22;10398;52.490;13.434;2023-04-24T13:12:57;19.10;99.90
20479;DHT22;10398;52.490;13.434;2023-04-24T13:15:23;19.10;99.90
20479;DHT22;10398;52.490;13.434;2023-04-24T13:17:50;19.20;99.90
20479;DHT22;10398;52.490;13.434;2023-04-24T13:20:15;19.30;99.90
20479;DHT22;10398;52.490;13.434;2023-04-24T13:22:41;19.40;99.90
20479;DHT22;10398;52.490;13.434;2023-04-24T13:25:07;19.40;99.90
20479;DHT22;10398;52.490;13.434;2023-04-24T13:27:33;19.40;99.90
20479;DHT22;10398;52.490;13.434;2023-04-24T13:29:58;19.40;99.90
20479;DHT22;10398;52.490;13.434;2023-04-24T13:32:24;19.60;99.40
20479;DHT22;10398;52.490;13.434;2023-04-24T13:34:50;19.80;99.90
20479;DHT22;10398;52.490;13.434;2023-04-24T13:37:16;20.00;97.60
20479;DHT22;10398;52.490;13.434;2023-04-24T13:39:42;20.00;96.70
20479;DHT22;10398;52.490;13.434;2023-04-24T13:42:08;19.90;95.90
20479;DHT22;10398;52.490;13.434;2023-04-24T13:44:34;20.00;95.50
20479;DHT22;10398;52.490;13.434;2023-04-24T13:47:00;20.10;94.40
20479;DHT22;10398;52.490;13.434;2023-04-24T13:49:26;20.20;94.50
20479;DHT22;10398;52.490;13.434;2023-04-24T13:51:53;20.20;94.10
20479;DHT22;10398;52.490;13.434;2023-04-24T13:54:19;20.30;93.80
20479;DHT22;10398;52.490;13.434;2023-04-24T13:56:45;20.20;94.50
20479;DHT22;10398;52.490;13.434;2023-04-24T13:59:12;20.00;95.20
20479;DHT22;10398;52.490;13.434;2023-04-24T14:01:38;20.00;93.70
20479;DHT22;10398;52.490;13.434;2023-04-24T14:04:04;20.10;93.70
20479;DHT22;10398;52.490;13.434;2023-04-24T14:06:29;20.00;94.60
20479;DHT22;10398;52.490;13.434;2023-04-24T14:08:56;20.00;93.90
20479;DHT22;10398;52.490;13.434;2023-04-24T14:11:22;20.00;94.70
20479;DHT22;10398;52.490;13.434;2023-04-24T14:13:48;20.00;93.50
20479;DHT22;10398;52.490;13.434;2023-04-24T14:16:13;20.10;94.50
20479;DHT22;10398;52.490;13.434;2023-04-24T14:18:39;20.10;94.00
20479;DHT22;10398;52.490;13.434;2023-04-24T14:21:05;19.90;94.40
20479;DHT22;10398;52.490;13.434;2023-04-24T14:23:31;19.80;94.60
20479;DHT22;10398;52.490;13.434;2023-04-24T14:25:58;19.40;94.20
20479;DHT22;10398;52.490;13.434;2023-04-24T14:28:24;19.30;95.50
20479;DHT22;10398;52.490;13.434;2023-04-24T14:30:50;19.30;95.20
20479;DHT22;10398;52.490;13.434;2023-04-24T14:33:17;19.10;95.20
20479;DHT22;10398;52.490;13.434;2023-04-24T14:35:43;19.20;94.50
20479;DHT22;10398;52.490;13.434;2023-04-24T14:38:09;19.40;93.60
20479;DHT22;10398;52.490;13.434;2023-04-24T14:40:35;19.30;92.70
20479;DHT22;10398;52.490;13.434;2023-04-24T14:43:01;19.20;91.90
20479;DHT22;10398;52.490;13.434;2023-04-24T14:45:27;19.10;92.30
20479;DHT22;10398;52.490;13.434;2023-04-24T14:47:53;18.90;92.40
20479;DHT22;10398;52.490;13.434;2023-04-24T14:50:19;18.90;93.30
20479;DHT22;10398;52.490;13.434;2023-04-24T14:52:45;18.90;93.60
20479;DHT22;10398;52.490;13.434;2023-04-24T14:55:11;19.10;93.80
20479;DHT22;10398;52.490;13.434;2023-04-24T14:57:37;19.20;93.70
20479;DHT22;10398;52.490;13.434;2023-04-24T15:00:06;19.30;93.90
20479;DHT22;10398;52.490;13.434;2023-04-24T15:02:34;19.30;93.20
20479;DHT22;10398;52.490;13.434;2023-04-24T15:05:02;19.20;92.70
20479;DHT22;10398;52.490;13.434;2023-04-24T15:07:28;18.80;92.50
20479;DHT22;10398;52.490;13.434;2023-04-24T15:09:54;18.60;93.30
20479;DHT22;10398;52.490;13.434;2023-04-24T15:12:20;18.50;93.30
20479;DHT22;10398;52.490;13.434;2023-04-24T15:14:46;18.30;93.90
20479;DHT22;10398;52.490;13.434;2023-04-24T15:17:12;18.30;93.90
20479;DHT22;10398;52.490;13.434;2023-04-24T15:19:37;18.20;93.90
20479;DHT22;10398;52.490;13.434;2023-04-24T15:22:03;18.20;94.00